Tenjinmaru No11 — JD3353 — position and weather

sailwx.info

Track history (hours):
 
Tides and Currents Weather Stations Pressure Air Temp Water Temp Dewpoint Dewpoint Depression Visibility Wind Speed Wind Dir Waves Ship Positions

Tenjinmaru No11

Last reported at 2015-Feb-28 04:11 UTC. Time now 2015-Mar-03 00:37 UTC.
Position N 34°57' E 139°44'.

Length 75 m; draft 4.2 m.

Type: Cargo ship. MMSI: 431003485.

Date/timePositionNaut miles runAvg speedWind from/ knotsBaromVisibWave heightAir tempDewpointWater temp
2015-Feb-28 04:11N 34°57' E 139°44'711.4
2015-Feb-28 03:33N 35°04' E 139°45'1211.7
2015-Feb-28 02:29N 35°17' E 139°45'6 6.3
2015-Feb-28 01:34N 35°21' E 139°41'0 0.0
2015-Feb-28 00:33N 35°21' E 139°41'0 0.0
2015-Feb-27 23:34N 35°21' E 139°41'0 0.0
2015-Feb-27 22:34N 35°21' E 139°41'0 0.0
2015-Feb-27 21:33N 35°21' E 139°41'0 0.0
2015-Feb-27 20:34N 35°21' E 139°41'0 0.0
2015-Feb-27 19:34N 35°21' E 139°41'0 0.0
2015-Feb-27 18:33N 35°21' E 139°41'0 0.0
2015-Feb-27 17:34N 35°21' E 139°41'0 0.0
2015-Feb-27 16:34N 35°21' E 139°41'0 0.0
2015-Feb-27 15:33N 35°21' E 139°41'0 0.0
2015-Feb-27 14:33N 35°21' E 139°41'0 0.0
2015-Feb-27 13:33N 35°21' E 139°41'0 0.0
2015-Feb-27 12:34N 35°21' E 139°41'0 0.0
2015-Feb-27 11:33N 35°21' E 139°41'0 0.0
2015-Feb-27 10:33N 35°21' E 139°41'0 0.0
2015-Feb-27 09:33N 35°21' E 139°41'0 0.0
2015-Feb-27 08:33N 35°21' E 139°41'0 0.0
2015-Feb-27 07:33N 35°21' E 139°41'0 0.1
2015-Feb-27 06:33N 35°21' E 139°40'0 0.0
2015-Feb-27 05:33N 35°22' E 139°40'0 0.0
2015-Feb-27 04:33N 35°22' E 139°40'0 0.0
2015-Feb-27 03:33N 35°22' E 139°40'0 0.0
2015-Feb-27 02:33N 35°22' E 139°41'0 0.0
2015-Feb-27 01:33N 35°21' E 139°41'0 0.0
2015-Feb-27 00:33N 35°21' E 139°41'0 0.0
2015-Feb-26 23:33N 35°21' E 139°41'0 0.0
2015-Feb-26 22:33N 35°22' E 139°41'2 1.8
2015-Feb-26 21:33N 35°23' E 139°42'8 7.8
2015-Feb-26 20:33N 35°21' E 139°51'0 0.0
2015-Feb-26 19:33N 35°21' E 139°51'0 0.0
2015-Feb-26 18:33N 35°21' E 139°51'0 0.0
2015-Feb-26 17:33N 35°21' E 139°51'0 0.0
2015-Feb-26 16:33N 35°21' E 139°51'0 0.0
2015-Feb-26 15:33N 35°21' E 139°51'0 0.0
2015-Feb-26 14:33N 35°21' E 139°51'0 0.0
2015-Feb-26 13:33N 35°21' E 139°51'0 0.0
2015-Feb-26 12:33N 35°21' E 139°51'0 0.0
2015-Feb-26 11:33N 35°21' E 139°51'0 0.0
2015-Feb-26 10:33N 35°21' E 139°51'0 0.0
2015-Feb-26 09:33N 35°21' E 139°51'0 0.0
2015-Feb-26 08:33N 35°21' E 139°51'0 0.0
2015-Feb-26 07:33N 35°21' E 139°51'0 0.0
2015-Feb-26 06:33N 35°21' E 139°51'0 0.0
2015-Feb-26 05:33N 35°21' E 139°51'0 0.0
2015-Feb-26 04:33N 35°21' E 139°51'0 0.0
2015-Feb-26 03:33N 35°21' E 139°51'0 0.0
2015-Feb-26 02:33N 35°21' E 139°51'0 0.0
2015-Feb-26 01:33N 35°21' E 139°51'0 0.0
2015-Feb-26 00:33N 35°21' E 139°51'6 0.2
2015-Feb-25 00:33N 35°25' E 139°46'7 6.6
2015-Feb-24 23:33N 35°29' E 139°39'0 0.0
2015-Feb-24 22:33N 35°29' E 139°39'0 0.0
2015-Feb-24 21:33N 35°29' E 139°39'0 0.0
2015-Feb-24 20:33N 35°29' E 139°39'0 0.0
2015-Feb-24 19:33N 35°29' E 139°39'0 0.0
2015-Feb-24 18:33N 35°29' E 139°39'0 0.0
2015-Feb-24 17:33N 35°29' E 139°39'0 0.0
2015-Feb-24 16:33N 35°29' E 139°39'0 0.0
2015-Feb-24 15:33N 35°29' E 139°39'0 0.0
2015-Feb-24 14:33N 35°29' E 139°39'0 0.0
2015-Feb-24 13:33N 35°29' E 139°39'0 0.0
2015-Feb-24 12:33N 35°29' E 139°39'0 0.0
2015-Feb-24 11:33N 35°29' E 139°39'0 0.0
2015-Feb-24 10:33N 35°29' E 139°39'0 0.0
2015-Feb-24 09:33N 35°29' E 139°39'0 0.0
2015-Feb-24 08:33N 35°29' E 139°39'0 0.0
2015-Feb-24 07:33N 35°29' E 139°39'0 0.1
2015-Feb-24 06:34N 35°29' E 139°39'8 8.3
2015-Feb-24 05:33N 35°21' E 139°43'1010.3
2015-Feb-24 04:33N 35°11' E 139°46'  
2015-Feb-20 15:20N 33°49' E 130°21'1012.1
2015-Feb-20 14:30N 33°44' E 130°10'3 0.1
2015-Feb-18 21:32N 33°42' E 130°08'1212.5
2015-Feb-18 20:33N 33°49' E 130°20'1611.9
2015-Feb-18 19:11N 33°57' E 130°37'811.6
2015-Feb-18 18:31N 33°58' E 130°46'  
Track history (hours):
 
Tides and Currents Weather Stations Pressure Air Temp Water Temp Dewpoint Dewpoint Depression Visibility Wind Speed Wind Dir Waves Ship Positions

Tenjinmaru No11

Last reported at 2015-Feb-28 04:11 UTC. Time now 2015-Mar-03 00:37 UTC.
Position N 34°57' E 139°44'.

Length 75 m; draft 4.2 m.

Type: Cargo ship. MMSI: 431003485.

Date/timePositionNaut miles runAvg speedWind from/ knotsBaromVisibWave heightAir tempDewpointWater temp
2015-Feb-28 04:11N 34°57' E 139°44'711.4
2015-Feb-28 03:33N 35°04' E 139°45'1211.7
2015-Feb-28 02:29N 35°17' E 139°45'6 6.3
2015-Feb-28 01:34N 35°21' E 139°41'0 0.0
2015-Feb-28 00:33N 35°21' E 139°41'0 0.0
2015-Feb-27 23:34N 35°21' E 139°41'0 0.0
2015-Feb-27 22:34N 35°21' E 139°41'0 0.0
2015-Feb-27 21:33N 35°21' E 139°41'0 0.0
2015-Feb-27 20:34N 35°21' E 139°41'0 0.0
2015-Feb-27 19:34N 35°21' E 139°41'0 0.0
2015-Feb-27 18:33N 35°21' E 139°41'0 0.0
2015-Feb-27 17:34N 35°21' E 139°41'0 0.0
2015-Feb-27 16:34N 35°21' E 139°41'0 0.0
2015-Feb-27 15:33N 35°21' E 139°41'0 0.0
2015-Feb-27 14:33N 35°21' E 139°41'0 0.0
2015-Feb-27 13:33N 35°21' E 139°41'0 0.0
2015-Feb-27 12:34N 35°21' E 139°41'0 0.0
2015-Feb-27 11:33N 35°21' E 139°41'0 0.0
2015-Feb-27 10:33N 35°21' E 139°41'0 0.0
2015-Feb-27 09:33N 35°21' E 139°41'0 0.0
2015-Feb-27 08:33N 35°21' E 139°41'0 0.0
2015-Feb-27 07:33N 35°21' E 139°41'0 0.1
2015-Feb-27 06:33N 35°21' E 139°40'0 0.0
2015-Feb-27 05:33N 35°22' E 139°40'0 0.0
2015-Feb-27 04:33N 35°22' E 139°40'0 0.0
2015-Feb-27 03:33N 35°22' E 139°40'0 0.0
2015-Feb-27 02:33N 35°22' E 139°41'0 0.0
2015-Feb-27 01:33N 35°21' E 139°41'0 0.0
2015-Feb-27 00:33N 35°21' E 139°41'0 0.0
2015-Feb-26 23:33N 35°21' E 139°41'0 0.0
2015-Feb-26 22:33N 35°22' E 139°41'2 1.8
2015-Feb-26 21:33N 35°23' E 139°42'8 7.8
2015-Feb-26 20:33N 35°21' E 139°51'0 0.0
2015-Feb-26 19:33N 35°21' E 139°51'0 0.0
2015-Feb-26 18:33N 35°21' E 139°51'0 0.0
2015-Feb-26 17:33N 35°21' E 139°51'0 0.0
2015-Feb-26 16:33N 35°21' E 139°51'0 0.0
2015-Feb-26 15:33N 35°21' E 139°51'0 0.0
2015-Feb-26 14:33N 35°21' E 139°51'0 0.0
2015-Feb-26 13:33N 35°21' E 139°51'0 0.0
2015-Feb-26 12:33N 35°21' E 139°51'0 0.0
2015-Feb-26 11:33N 35°21' E 139°51'0 0.0
2015-Feb-26 10:33N 35°21' E 139°51'0 0.0
2015-Feb-26 09:33N 35°21' E 139°51'0 0.0
2015-Feb-26 08:33N 35°21' E 139°51'0 0.0
2015-Feb-26 07:33N 35°21' E 139°51'0 0.0
2015-Feb-26 06:33N 35°21' E 139°51'0 0.0
2015-Feb-26 05:33N 35°21' E 139°51'0 0.0
2015-Feb-26 04:33N 35°21' E 139°51'0 0.0
2015-Feb-26 03:33N 35°21' E 139°51'0 0.0
2015-Feb-26 02:33N 35°21' E 139°51'0 0.0
2015-Feb-26 01:33N 35°21' E 139°51'0 0.0
2015-Feb-26 00:33N 35°21' E 139°51'6 0.2
2015-Feb-25 00:33N 35°25' E 139°46'7 6.6
2015-Feb-24 23:33N 35°29' E 139°39'0 0.0
2015-Feb-24 22:33N 35°29' E 139°39'0 0.0
2015-Feb-24 21:33N 35°29' E 139°39'0 0.0
2015-Feb-24 20:33N 35°29' E 139°39'0 0.0
2015-Feb-24 19:33N 35°29' E 139°39'0 0.0
2015-Feb-24 18:33N 35°29' E 139°39'0 0.0
2015-Feb-24 17:33N 35°29' E 139°39'0 0.0
2015-Feb-24 16:33N 35°29' E 139°39'0 0.0
2015-Feb-24 15:33N 35°29' E 139°39'0 0.0
2015-Feb-24 14:33N 35°29' E 139°39'0 0.0
2015-Feb-24 13:33N 35°29' E 139°39'0 0.0
2015-Feb-24 12:33N 35°29' E 139°39'0 0.0
2015-Feb-24 11:33N 35°29' E 139°39'0 0.0
2015-Feb-24 10:33N 35°29' E 139°39'0 0.0
2015-Feb-24 09:33N 35°29' E 139°39'0 0.0
2015-Feb-24 08:33N 35°29' E 139°39'0 0.0
2015-Feb-24 07:33N 35°29' E 139°39'0 0.1
2015-Feb-24 06:34N 35°29' E 139°39'8 8.3
2015-Feb-24 05:33N 35°21' E 139°43'1010.3
2015-Feb-24 04:33N 35°11' E 139°46'  
2015-Feb-20 15:20N 33°49' E 130°21'1012.1
2015-Feb-20 14:30N 33°44' E 130°10'3 0.1
2015-Feb-18 21:32N 33°42' E 130°08'1212.5
2015-Feb-18 20:33N 33°49' E 130°20'1611.9
2015-Feb-18 19:11N 33°57' E 130°37'811.6
2015-Feb-18 18:31N 33°58' E 130°46'  

Dump ship's entire track history